Time;durP1;ratioP1;P1;durP2;ratioP2;P2;SDS_P1;SDS_P2;PMS_P1;PMS_P2;Temp;Humidity;BMP_temperature;BMP_pressure;BME280_temperature;BME280_humidity;BME280_pressure;Samples;Min_cycle;Max_cycle;Signal;HPM_P1;HPM_P2
2023/03/29 00:00:00;;;;;;;7.13;2.83;;;22.80;99.90;;;;;;5111646;28;20177;-70
2023/03/29 00:02:31;;;;;;;5.53;2.37;;;22.90;99.90;;;;;;5103994;28;20194;-70
2023/03/29 00:05:03;;;;;;;7.20;2.57;;;23.10;99.90;;;;;;5111694;28;20186;-69
2023/03/29 00:07:35;;;;;;;9.70;2.70;;;23.20;99.90;;;;;;5110537;28;20549;-70
2023/03/29 00:10:04;;;;;;;6.07;2.30;;;23.20;99.90;;;;;;5110905;28;20209;-70
2023/03/29 00:12:33;;;;;;;5.57;2.47;;;23.10;99.90;;;;;;5091011;28;20231;-69
2023/03/29 00:15:00;;;;;;;5.27;2.93;;;23.10;99.90;;;;;;5091627;28;20197;-69
2023/03/29 00:17:29;;;;;;;4.83;2.40;;;23.00;99.90;;;;;;5091679;28;20213;-70
2023/03/29 00:19:57;;;;;;;6.13;2.53;;;22.90;99.90;;;;;;5089889;28;20171;-69
2023/03/29 00:22:25;;;;;;;6.37;3.30;;;22.90;99.90;;;;;;5091294;28;20193;-70
2023/03/29 00:24:54;;;;;;;5.40;2.57;;;23.00;99.90;;;;;;5105860;28;20178;-72
2023/03/29 00:27:22;;;;;;;4.63;2.40;;;23.00;99.90;;;;;;5093356;28;20655;-69
2023/03/29 00:29:50;;;;;;;5.30;2.70;;;23.00;99.90;;;;;;5111996;28;20182;-69
2023/03/29 00:32:18;;;;;;;7.93;2.43;;;23.00;99.90;;;;;;5111805;28;20221;-69
2023/03/29 00:34:49;;;;;;;5.50;2.50;;;23.10;99.90;;;;;;5111546;28;20205;-71
2023/03/29 00:37:18;;;;;;;4.03;2.63;;;23.20;99.90;;;;;;5111750;28;20620;-69
2023/03/29 00:39:47;;;;;;;3.30;2.87;;;23.10;99.90;;;;;;5103568;28;20215;-71
2023/03/29 00:42:16;;;;;;;8.80;2.60;;;23.10;99.90;;;;;;5111457;28;20633;-69
2023/03/29 00:45:06;;;;;;;4.73;2.70;;;23.20;99.90;;;;;;5111417;28;20709;-70
2023/03/29 00:47:50;;;;;;;3.13;2.20;;;23.30;99.90;;;;;;5111298;28;20280;-70
2023/03/29 00:50:32;;;;;;;4.13;1.97;;;23.70;99.90;;;;;;5111841;28;20183;-70
2023/03/29 00:53:20;;;;;;;6.37;2.40;;;24.80;99.90;;;;;;5110440;28;20253;-70
2023/03/29 00:55:52;;;;;;;4.70;2.60;;;25.50;99.90;;;;;;5111344;28;20223;-71
2023/03/29 00:58:28;;;;;;;3.63;1.90;;;25.80;99.90;;;;;;5111719;28;20544;-70
2023/03/29 01:01:07;;;;;;;5.00;2.07;;;25.90;99.90;;;;;;5111609;28;20174;-71
2023/03/29 01:03:45;;;;;;;5.63;1.80;;;26.10;99.90;;;;;;5111212;28;20182;-71
2023/03/29 01:06:15;;;;;;;3.43;1.83;;;27.20;99.90;;;;;;5111550;28;20175;-70
2023/03/29 01:08:57;;;;;;;4.07;1.80;;;27.10;99.90;;;;;;5111588;28;20629;-69
2023/03/29 01:11:30;;;;;;;3.10;2.10;;;27.00;99.90;;;;;;5109556;28;20229;-69
2023/03/29 01:14:14;;;;;;;6.10;1.63;;;27.30;99.90;;;;;;5111613;28;20186;-70
2023/03/29 01:16:42;;;;;;;5.90;2.13;;;27.50;99.90;;;;;;5111502;28;20275;-68
2023/03/29 01:19:15;;;;;;;7.70;2.90;;;27.20;99.90;;;;;;5111032;28;20689;-69
2023/03/29 01:22:05;;;;;;;2.47;1.30;;;27.20;99.90;;;;;;5113610;28;20163;-71
2023/03/29 01:24:54;;;;;;;9.13;3.07;;;27.40;99.90;;;;;;5114553;28;20171;-69
2023/03/29 01:27:52;;;;;;;2.37;1.37;;;27.10;99.90;;;;;;5112705;28;20179;-68
2023/03/29 01:30:29;;;;;;;2.00;1.60;;;26.60;99.90;;;;;;5094810;28;20199;-69
2023/03/29 01:33:24;;;;;;;3.27;1.70;;;26.20;99.90;;;;;;5094002;28;20301;-70
2023/03/29 01:36:02;;;;;;;4.93;1.77;;;26.20;99.90;;;;;;5102960;28;20202;-69
2023/03/29 01:38:37;;;;;;;2.77;1.70;;;26.30;99.90;;;;;;5103561;28;20212;-71
2023/03/29 01:41:06;;;;;;;3.40;1.47;;;26.30;99.90;;;;;;5099758;28;20190;-70
2023/03/29 01:43:38;;;;;;;2.13;1.60;;;26.30;99.90;;;;;;5092915;28;20274;-70
2023/03/29 01:46:23;;;;;;;3.00;1.83;;;26.50;99.90;;;;;;5093158;28;20600;-70
2023/03/29 01:48:57;;;;;;;3.43;1.47;;;27.70;99.90;;;;;;5093494;28;20243;-68
2023/03/29 01:51:39;;;;;;;3.47;1.63;;;27.90;99.90;;;;;;5094221;28;20164;-72
2023/03/29 01:54:18;;;;;;;2.53;1.67;;;27.50;99.90;;;;;;5092475;28;20645;-70
2023/03/29 01:56:49;;;;;;;2.93;1.70;;;26.70;99.90;;;;;;5092343;28;20205;-69
2023/03/29 01:59:29;;;;;;;3.03;1.80;;;26.40;99.90;;;;;;5101479;28;20277;-70
2023/03/29 02:02:01;;;;;;;3.80;1.43;;;26.30;99.90;;;;;;5113058;28;20190;-71
2023/03/29 02:04:39;;;;;;;4.97;1.90;;;26.20;99.90;;;;;;5096887;28;20179;-68
2023/03/29 02:07:09;;;;;;;6.33;1.87;;;26.40;99.90;;;;;;5099961;28;20187;-71
2023/03/29 02:09:40;;;;;;;2.73;1.70;;;26.70;99.90;;;;;;5093848;28;20183;-70
2023/03/29 02:12:09;;;;;;;2.47;1.80;;;26.60;99.90;;;;;;5105692;28;20243;-69
2023/03/29 02:14:37;;;;;;;4.90;2.07;;;26.30;99.90;;;;;;5093878;28;20223;-70
2023/03/29 02:17:18;;;;;;;4.60;2.10;;;26.30;99.90;;;;;;5093284;28;20666;-69
2023/03/29 02:23:26;;;;;;;2.33;1.57;;;26.30;99.90;;;;;;5093063;28;20186;-71
2023/03/29 02:25:55;;;;;;;4.93;2.13;;;27.40;99.90;;;;;;5093186;28;20179;-70
2023/03/29 02:28:25;;;;;;;4.97;1.30;;;27.30;99.90;;;;;;5093573;28;20602;-69
2023/03/29 02:31:06;;;;;;;5.50;1.60;;;27.10;99.90;;;;;;5093457;28;20167;-70
2023/03/29 02:33:40;;;;;;;3.40;1.40;;;27.60;99.90;;;;;;5092914;28;20226;-69
2023/03/29 02:36:24;;;;;;;3.07;1.43;;;28.30;99.90;;;;;;5093473;28;20224;-71
2023/03/29 02:38:52;;;;;;;2.43;1.53;;;28.50;99.90;;;;;;5092761;28;20168;-69
2023/03/29 02:41:22;;;;;;;1.37;1.27;;;28.50;99.90;;;;;;5093441;28;20641;-68
2023/03/29 02:43:52;;;;;;;1.73;1.27;;;28.50;99.90;;;;;;5093062;28;20175;-70
2023/03/29 02:46:20;;;;;;;2.80;1.50;;;28.00;99.90;;;;;;5092838;28;20250;-69
2023/03/29 02:48:51;;;;;;;3.07;1.20;;;27.50;99.90;;;;;;5093230;28;20171;-70
2023/03/29 02:51:23;;;;;;;4.23;1.40;;;27.30;99.90;;;;;;5091818;28;20182;-70
2023/03/29 02:54:01;;;;;;;1.90;1.20;;;27.30;99.90;;;;;;5092645;28;20661;-69
2023/03/29 02:56:30;;;;;;;2.83;1.73;;;27.50;99.90;;;;;;5093081;28;20187;-70
2023/03/29 02:58:58;;;;;;;2.40;1.37;;;27.40;99.90;;;;;;5092870;28;20179;-70
2023/03/29 03:01:26;;;;;;;4.57;1.30;;;27.20;99.90;;;;;;5092251;28;20258;-72
2023/03/29 03:03:54;;;;;;;1.80;1.40;;;26.90;99.90;;;;;;5092964;28;20179;-70
2023/03/29 03:06:22;;;;;;;6.77;1.70;;;26.40;99.90;;;;;;5092806;28;20172;-70
2023/03/29 03:08:50;;;;;;;4.33;1.67;;;25.90;99.90;;;;;;5092229;28;20645;-70
2023/03/29 03:11:18;;;;;;;2.47;1.30;;;25.20;99.90;;;;;;5092478;28;20215;-70
2023/03/29 03:13:46;;;;;;;2.63;1.33;;;24.20;99.90;;;;;;5092719;28;20206;-70
2023/03/29 03:16:13;;;;;;;2.13;1.60;;;23.90;99.90;;;;;;5092113;28;20178;-70
2023/03/29 03:18:42;;;;;;;2.87;1.93;;;23.80;99.90;;;;;;5092609;28;20240;-70
2023/03/29 03:21:10;;;;;;;5.70;2.13;;;24.00;99.90;;;;;;5092375;28;20186;-70
2023/03/29 03:23:38;;;;;;;2.27;1.77;;;24.30;99.90;;;;;;5091783;28;20254;-70
2023/03/29 03:26:07;;;;;;;2.10;1.50;;;24.60;99.90;;;;;;5092333;28;20175;-70
2023/03/29 03:28:35;;;;;;;4.13;2.13;;;24.80;99.90;;;;;;5092300;28;20696;-70
2023/03/29 03:31:03;;;;;;;3.90;1.20;;;24.90;99.90;;;;;;5092136;28;20179;-70
2023/03/29 03:33:30;;;;;;;6.43;1.60;;;24.80;99.90;;;;;;5092252;28;20214;-70
2023/03/29 03:36:04;;;;;;;4.20;1.50;;;25.00;99.90;;;;;;5092222;28;20174;-70
2023/03/29 03:41:54;;;;;;;1.20;1.10;;;25.60;99.90;;;;;;5091429;28;20270;-71
2023/03/29 03:44:22;;;;;;;2.83;0.77;;;25.90;99.90;;;;;;5091622;28;20178;-70
2023/03/29 03:46:50;;;;;;;2.20;1.10;;;25.90;99.90;;;;;;5091530;28;20187;-70
2023/03/29 03:49:18;;;;;;;3.90;1.60;;;26.20;99.90;;;;;;5092073;28;20214;-69
2023/03/29 03:51:45;;;;;;;2.87;1.20;;;26.50;99.90;;;;;;5091939;28;20275;-70
2023/03/29 03:54:13;;;;;;;3.00;1.20;;;26.50;99.90;;;;;;5091779;28;20179;-70
2023/03/29 03:56:42;;;;;;;3.80;1.57;;;26.50;99.90;;;;;;5091983;28;20224;-71
2023/03/29 03:59:10;;;;;;;3.67;1.10;;;26.60;99.90;;;;;;5092044;28;20187;-71
2023/03/29 04:01:42;;;;;;;2.57;0.60;;;26.70;99.90;;;;;;5091319;28;20179;-70
2023/03/29 04:04:11;;;;;;;1.23;0.63;;;26.50;99.90;;;;;;5091767;28;20183;-70
2023/03/29 04:06:39;;;;;;;2.10;0.80;;;26.90;99.90;;;;;;5091908;28;20638;-69
2023/03/29 04:09:08;;;;;;;2.23;0.80;;;27.30;99.90;;;;;;5091474;28;20183;-70
2023/03/29 04:11:36;;;;;;;4.93;1.17;;;27.20;99.90;;;;;;5091487;28;20226;-71
2023/03/29 04:14:09;;;;;;;0.60;0.60;;;27.40;99.90;;;;;;5091739;28;20745;-72
2023/03/29 04:16:36;;;;;;;2.67;0.70;;;27.30;99.90;;;;;;5091237;28;20711;-70
2023/03/29 04:19:04;;;;;;;2.53;0.50;;;27.50;99.90;;;;;;5091839;28;20171;-72
2023/03/29 04:21:33;;;;;;;2.53;0.63;;;27.50;99.90;;;;;;5091538;28;20531;-68
2023/03/29 04:24:01;;;;;;;0.80;0.70;;;27.40;99.90;;;;;;5091248;28;20175;-72
2023/03/29 04:26:28;;;;;;;3.50;0.80;;;27.40;99.90;;;;;;5091453;28;20236;-71
2023/03/29 04:28:56;;;;;;;1.33;0.70;;;27.30;99.90;;;;;;5109842;28;20175;-68
2023/03/29 04:31:24;;;;;;;0.53;0.53;;;27.40;99.90;;;;;;5104897;28;20246;-71
2023/03/29 04:33:52;;;;;;;0.90;0.80;;;27.50;99.90;;;;;;5095823;28;20195;-69
2023/03/29 04:36:20;;;;;;;1.67;0.80;;;27.60;99.90;;;;;;5092753;28;20178;-69
2023/03/29 04:38:51;;;;;;;0.40;0.40;;;27.80;99.90;;;;;;5104963;28;20206;-69
2023/03/29 04:41:22;;;;;;;1.53;0.67;;;27.80;99.90;;;;;;5112456;28;20173;-70
2023/03/29 04:43:50;;;;;;;1.70;0.53;;;27.80;99.90;;;;;;5112996;28;20174;-69
2023/03/29 04:46:18;;;;;;;1.43;0.60;;;27.80;99.90;;;;;;5112589;28;20194;-69
2023/03/29 04:48:46;;;;;;;1.33;0.67;;;27.90;99.90;;;;;;5112951;28;20171;-70
2023/03/29 04:51:14;;;;;;;1.97;0.60;;;28.00;99.90;;;;;;5111668;28;20217;-69
2023/03/29 04:53:42;;;;;;;1.27;0.93;;;28.00;99.90;;;;;;5112876;28;20346;-70
2023/03/29 04:56:10;;;;;;;1.97;1.00;;;28.20;99.90;;;;;;5115884;28;20170;-69
2023/03/29 04:58:38;;;;;;;2.00;0.90;;;28.50;99.90;;;;;;5117079;28;20174;-69
2023/03/29 05:01:06;;;;;;;1.73;0.80;;;28.30;99.90;;;;;;5116921;28;20167;-70
2023/03/29 05:03:34;;;;;;;2.87;1.03;;;28.20;99.90;;;;;;5116876;28;20166;-69
2023/03/29 05:06:06;;;;;;;3.13;0.50;;;28.30;99.90;;;;;;5116820;28;20649;-70
2023/03/29 05:08:39;;;;;;;0.80;0.50;;;28.50;99.90;;;;;;5116669;28;20179;-69
2023/03/29 05:11:10;;;;;;;0.50;0.40;;;28.60;99.90;;;;;;5115127;28;20512;-70
2023/03/29 05:13:38;;;;;;;1.67;0.40;;;28.50;99.90;;;;;;5116683;28;20221;-68
2023/03/29 05:16:07;;;;;;;0.47;0.30;;;28.60;99.90;;;;;;5116596;28;20175;-69
2023/03/29 05:18:35;;;;;;;0.30;0.30;;;28.70;99.90;;;;;;5116624;28;20175;-70
2023/03/29 05:21:02;;;;;;;2.13;0.30;;;28.70;99.90;;;;;;5116533;28;20171;-69
2023/03/29 05:23:30;;;;;;;1.00;0.30;;;28.70;99.90;;;;;;5116425;28;20174;-69
2023/03/29 05:25:57;;;;;;;0.77;0.43;;;28.60;99.90;;;;;;5116423;28;20175;-69
2023/03/29 05:28:26;;;;;;;1.80;0.40;;;28.60;99.90;;;;;;5116456;28;20269;-69
2023/03/29 05:31:04;;;;;;;2.50;0.33;;;28.60;99.90;;;;;;5116440;28;20186;-68
2023/03/29 05:33:32;;;;;;;0.23;0.23;;;28.60;99.90;;;;;;5116376;28;20206;-70
2023/03/29 05:36:12;;;;;;;0.40;0.40;;;28.60;99.90;;;;;;5116271;28;20170;-68
2023/03/29 05:38:46;;;;;;;2.60;0.30;;;28.60;99.90;;;;;;5116285;28;20188;-69
2023/03/29 05:41:14;;;;;;;0.30;0.30;;;28.60;99.90;;;;;;5116422;28;20170;-69
2023/03/29 05:43:42;;;;;;;1.43;0.73;;;28.60;99.90;;;;;;5116194;28;20269;-70
2023/03/29 05:46:11;;;;;;;1.33;0.37;;;28.60;99.90;;;;;;5116126;28;20244;-70
2023/03/29 05:48:38;;;;;;;0.30;0.30;;;28.60;99.90;;;;;;5114566;28;20261;-70
2023/03/29 05:51:06;;;;;;;2.40;0.20;;;28.60;99.90;;;;;;5115952;28;20182;-70
2023/03/29 05:53:34;;;;;;;1.30;0.30;;;28.50;99.90;;;;;;5114459;28;20221;-70
2023/03/29 05:56:02;;;;;;;0.30;0.20;;;28.40;98.90;;;;;;5116261;28;20640;-70
2023/03/29 05:58:30;;;;;;;1.03;0.40;;;28.40;99.90;;;;;;5114402;28;20182;-69
2023/03/29 06:00:59;;;;;;;0.20;0.20;;;28.40;99.90;;;;;;5114305;28;20522;-68
2023/03/29 06:03:26;;;;;;;0.83;0.30;;;28.40;99.90;;;;;;5114356;28;20178;-69
2023/03/29 06:06:03;;;;;;;0.40;0.30;;;28.50;99.90;;;;;;5115392;28;20202;-69
2023/03/29 06:08:31;;;;;;;0.83;0.20;;;28.40;99.90;;;;;;5115376;28;20213;-69
2023/03/29 06:11:01;;;;;;;0.53;0.30;;;28.50;99.70;;;;;;5115299;28;20211;-70
2023/03/29 06:13:36;;;;;;;1.33;0.43;;;28.50;97.00;;;;;;5115499;28;20214;-69
2023/03/29 06:16:05;;;;;;;0.20;0.20;;;28.30;98.00;;;;;;5115405;28;20201;-68
2023/03/29 06:18:38;;;;;;;0.33;0.30;;;28.00;99.90;;;;;;5115342;28;20228;-68
2023/03/29 06:21:07;;;;;;;3.03;0.40;;;27.70;99.90;;;;;;5115525;28;20201;-69
2023/03/29 06:23:35;;;;;;;0.30;0.30;;;27.60;99.90;;;;;;5115388;28;20512;-69
2023/03/29 06:26:04;;;;;;;3.03;0.40;;;27.50;99.90;;;;;;5115250;28;20174;-71
2023/03/29 06:28:32;;;;;;;3.10;0.37;;;27.10;99.90;;;;;;5113952;28;20201;-70
2023/03/29 06:31:00;;;;;;;0.27;0.23;;;26.80;99.90;;;;;;5115212;28;20525;-70
2023/03/29 06:33:29;;;;;;;2.67;0.30;;;26.60;99.90;;;;;;5115382;28;20214;-70
2023/03/29 06:35:57;;;;;;;0.67;0.40;;;26.40;99.90;;;;;;5115097;28;20686;-69
2023/03/29 06:38:27;;;;;;;1.33;0.43;;;26.30;99.90;;;;;;5115040;28;20170;-71
2023/03/29 06:41:06;;;;;;;2.33;0.60;;;26.20;99.90;;;;;;5114782;28;20182;-71
2023/03/29 06:43:33;;;;;;;1.10;0.40;;;26.30;99.90;;;;;;5114893;28;20540;-70
2023/03/29 06:46:01;;;;;;;0.53;0.30;;;26.30;99.90;;;;;;5114687;27;20577;-71
2023/03/29 06:48:28;;;;;;;1.00;0.50;;;26.40;99.90;;;;;;5114983;28;20228;-71
2023/03/29 06:50:56;;;;;;;1.50;0.40;;;26.50;99.90;;;;;;5113319;28;20182;-71
2023/03/29 06:53:23;;;;;;;1.23;0.40;;;26.40;99.90;;;;;;5114623;28;20250;-70
2023/03/29 06:55:51;;;;;;;1.70;0.40;;;26.30;99.90;;;;;;5114446;28;20170;-70
2023/03/29 06:58:19;;;;;;;2.80;0.30;;;26.30;99.90;;;;;;5115119;28;20210;-71
2023/03/29 07:00:47;;;;;;;0.73;0.40;;;26.40;99.90;;;;;;5114515;28;20179;-70
2023/03/29 07:03:19;;;;;;;0.43;0.30;;;26.30;99.90;;;;;;5114633;28;20171;-69
2023/03/29 07:05:49;;;;;;;0.47;0.47;;;26.20;99.90;;;;;;5114180;28;20174;-70
2023/03/29 07:08:17;;;;;;;0.77;0.40;;;26.10;99.90;;;;;;5114546;28;20205;-70
2023/03/29 07:10:47;;;;;;;0.70;0.40;;;26.00;99.90;;;;;;5114475;28;20179;-69
2023/03/29 07:13:16;;;;;;;0.60;0.60;;;25.80;99.90;;;;;;5114435;28;20214;-71
2023/03/29 07:15:44;;;;;;;1.00;0.40;;;25.50;99.90;;;;;;5114213;28;20184;-68
2023/03/29 07:18:11;;;;;;;1.17;0.50;;;25.40;99.90;;;;;;5113425;28;20601;-70
2023/03/29 07:20:40;;;;;;;3.43;0.50;;;25.30;99.90;;;;;;5113817;28;20594;-69
2023/03/29 07:23:08;;;;;;;4.70;0.70;;;25.10;99.90;;;;;;5114085;28;20174;-73
2023/03/29 07:25:36;;;;;;;1.37;0.40;;;25.00;99.90;;;;;;5114069;28;20178;-70
2023/03/29 07:28:05;;;;;;;1.57;0.63;;;24.80;99.90;;;;;;5114004;28;20174;-70
2023/03/29 07:30:32;;;;;;;1.03;0.60;;;24.70;99.90;;;;;;5113996;28;20311;-70
2023/03/29 07:33:00;;;;;;;1.80;1.10;;;24.60;99.90;;;;;;5113814;28;20586;-71
2023/03/29 07:35:29;;;;;;;1.73;1.00;;;24.50;99.90;;;;;;5113770;28;20189;-71
2023/03/29 07:37:57;;;;;;;2.10;0.60;;;24.40;99.90;;;;;;5114051;28;20171;-70
2023/03/29 07:40:24;;;;;;;1.57;0.77;;;24.30;99.90;;;;;;5112626;28;20641;-69
2023/03/29 07:42:56;;;;;;;1.10;0.73;;;24.20;99.90;;;;;;5113977;27;20653;-71
2023/03/29 07:45:27;;;;;;;0.60;0.60;;;24.20;99.90;;;;;;5113719;27;20163;-70
2023/03/29 07:47:57;;;;;;;1.83;0.50;;;24.10;99.90;;;;;;5113830;28;20175;-70
2023/03/29 07:50:25;;;;;;;0.50;0.50;;;24.10;99.90;;;;;;5113648;28;20194;-69
2023/03/29 07:52:52;;;;;;;2.30;0.70;;;24.00;99.90;;;;;;5113596;28;20205;-70
2023/03/29 07:55:20;;;;;;;3.47;1.00;;;23.80;99.90;;;;;;5113539;28;20166;-70
2023/03/29 07:57:49;;;;;;;3.50;2.63;;;23.70;99.90;;;;;;5113642;28;20219;-69
2023/03/29 08:00:18;;;;;;;2.93;2.10;;;23.60;99.90;;;;;;5112241;28;20174;-70
2023/03/29 08:02:51;;;;;;;3.70;2.20;;;23.50;99.90;;;;;;5113397;28;20616;-70
2023/03/29 08:05:21;;;;;;;3.23;2.17;;;23.40;99.90;;;;;;5113744;28;20766;-71
2023/03/29 08:07:49;;;;;;;4.53;2.77;;;23.20;99.90;;;;;;5113671;28;20200;-71
2023/03/29 08:10:19;;;;;;;3.17;2.30;;;23.10;99.90;;;;;;5112213;28;20171;-71
2023/03/29 08:12:48;;;;;;;3.90;1.77;;;23.00;99.90;;;;;;5113206;28;20816;-70
2023/03/29 08:15:20;;;;;;;5.53;1.40;;;23.00;99.90;;;;;;5112243;28;20174;-72
2023/03/29 08:17:48;;;;;;;1.67;0.90;;;22.80;99.90;;;;;;5113642;28;20636;-69
2023/03/29 08:20:16;;;;;;;1.60;0.60;;;22.70;99.90;;;;;;5113291;28;20198;-71
2023/03/29 08:22:43;;;;;;;1.23;0.60;;;22.60;99.90;;;;;;5113556;28;20166;-71
2023/03/29 08:25:14;;;;;;;1.67;0.93;;;22.70;99.90;;;;;;5113488;28;20530;-72
2023/03/29 08:27:42;;;;;;;1.77;0.80;;;22.80;99.90;;;;;;5114131;28;20177;-70
2023/03/29 08:30:09;;;;;;;0.50;0.50;;;22.80;99.90;;;;;;5114999;28;20173;-71
2023/03/29 08:32:38;;;;;;;2.17;1.27;;;22.70;99.90;;;;;;5117600;28;20664;-71
2023/03/29 08:35:07;;;;;;;5.20;2.80;;;22.60;99.90;;;;;;5117477;28;20182;-71
2023/03/29 08:37:38;;;;;;;4.50;2.40;;;22.50;99.90;;;;;;5117578;28;20257;-73
2023/03/29 08:40:06;;;;;;;2.90;1.63;;;22.50;99.90;;;;;;5117734;28;20652;-70
2023/03/29 08:42:51;;;;;;;3.17;1.10;;;22.40;99.90;;;;;;5116161;28;20269;-71
2023/03/29 08:46:00;;;;;;;1.57;0.90;;;22.30;99.90;;;;;;5117428;28;20170;-71
2023/03/29 08:48:50;;;;;;;1.43;0.70;;;22.20;99.90;;;;;;5017711;28;20187;-70
2023/03/29 08:51:54;;;;;;;2.07;0.90;;;22.20;99.90;;;;;;5034830;28;20185;-74
2023/03/29 08:54:32;;;;;;;1.30;0.80;;;22.20;99.90;;;;;;5104975;28;20198;-69
2023/03/29 08:57:27;;;;;;;1.10;1.00;;;22.30;99.90;;;;;;5117573;28;20534;-70
2023/03/29 08:59:59;;;;;;;0.67;0.67;;;22.40;99.90;;;;;;5117051;28;20207;-70
2023/03/29 09:02:31;;;;;;;2.50;0.80;;;22.40;99.90;;;;;;5117227;28;20659;-70
2023/03/29 09:05:07;;;;;;;2.10;0.60;;;22.40;99.90;;;;;;5117236;27;20288;-70
2023/03/29 09:07:35;;;;;;;1.27;0.70;;;22.40;99.90;;;;;;5117392;28;20633;-70
2023/03/29 09:10:02;;;;;;;4.07;0.90;;;22.30;99.90;;;;;;5116956;28;20538;-70
2023/03/29 09:12:43;;;;;;;1.07;0.53;;;22.30;99.90;;;;;;5116726;28;20294;-69
2023/03/29 09:15:29;;;;;;;1.33;0.80;;;22.30;99.90;;;;;;5116833;28;20261;-73
2023/03/29 09:21:36;;;;;;;2.63;0.70;;;22.10;99.90;;;;;;5116449;28;20350;-76
2023/03/29 09:24:21;;;;;;;1.30;0.80;;;22.10;99.90;;;;;;5117010;28;20202;-70
2023/03/29 09:27:18;;;;;;;1.60;0.90;;;22.00;99.90;;;;;;5116639;28;20568;-72
2023/03/29 09:30:32;;;;;;;2.70;0.90;;;22.00;99.90;;;;;;5110650;28;20182;-71
2023/03/29 09:33:23;;;;;;;4.37;0.90;;;22.00;99.90;;;;;;5033761;28;20220;-70
2023/03/29 09:35:59;;;;;;;2.07;1.13;;;22.00;99.90;;;;;;5113725;28;20186;-71
2023/03/29 09:38:30;;;;;;;2.73;0.70;;;21.90;99.90;;;;;;5116674;28;20173;-72
2023/03/29 09:41:21;;;;;;;0.80;0.57;;;21.80;99.90;;;;;;5114644;28;20551;-74
2023/03/29 09:43:51;;;;;;;1.17;0.87;;;21.60;99.90;;;;;;5116921;28;20264;-73
2023/03/29 09:46:43;;;;;;;0.80;0.80;;;21.60;99.90;;;;;;5114813;28;20178;-71
2023/03/29 09:49:22;;;;;;;0.80;0.80;;;21.50;99.90;;;;;;5116279;28;20174;-73
2023/03/29 09:51:51;;;;;;;2.17;0.70;;;21.40;99.90;;;;;;5116548;28;20206;-71
2023/03/29 09:54:19;;;;;;;2.80;1.17;;;21.20;99.90;;;;;;5116182;28;20181;-69
2023/03/29 09:56:46;;;;;;;0.50;0.50;;;21.10;99.90;;;;;;5116068;28;20693;-70
2023/03/29 09:59:16;;;;;;;1.00;0.63;;;21.00;99.90;;;;;;5116096;28;20641;-70
2023/03/29 10:01:47;;;;;;;6.67;0.73;;;21.10;99.90;;;;;;5115958;28;20185;-71
2023/03/29 10:04:15;;;;;;;0.87;0.60;;;21.10;99.90;;;;;;5115848;28;20548;-67
2023/03/29 10:06:48;;;;;;;0.80;0.80;;;21.20;99.90;;;;;;5116404;28;20186;-70
2023/03/29 10:09:22;;;;;;;3.03;0.87;;;21.30;99.90;;;;;;5116199;27;20256;-71
2023/03/29 10:11:55;;;;;;;0.70;0.70;;;21.40;99.90;;;;;;5114176;28;20248;-70
2023/03/29 10:14:37;;;;;;;0.63;0.60;;;21.40;99.90;;;;;;5115818;28;20174;-72
2023/03/29 10:17:24;;;;;;;0.57;0.57;;;21.50;99.90;;;;;;5115614;28;20224;-73
2023/03/29 10:20:01;;;;;;;1.10;0.60;;;21.60;99.90;;;;;;5115848;28;20261;-71
2023/03/29 10:22:39;;;;;;;4.23;0.50;;;21.60;99.90;;;;;;5115596;28;20170;-68
2023/03/29 10:25:14;;;;;;;1.83;0.60;;;21.60;99.90;;;;;;5115605;28;20178;-70
2023/03/29 10:27:43;;;;;;;0.90;0.70;;;21.70;99.90;;;;;;5115546;28;20173;-70
2023/03/29 10:30:23;;;;;;;0.60;0.60;;;21.60;99.90;;;;;;5114177;28;20186;-71
2023/03/29 10:32:58;;;;;;;1.93;0.60;;;21.60;99.90;;;;;;5115383;28;20257;-72
2023/03/29 10:35:32;;;;;;;0.60;0.60;;;21.50;99.90;;;;;;5115308;28;20178;-69
2023/03/29 10:38:02;;;;;;;0.60;0.60;;;21.50;99.90;;;;;;5115790;28;20169;-71
2023/03/29 10:40:33;;;;;;;0.60;0.60;;;21.30;99.90;;;;;;5115180;28;20217;-71
2023/03/29 10:43:34;;;;;;;0.57;0.50;;;21.20;99.90;;;;;;5115406;28;20184;-69
2023/03/29 10:46:12;;;;;;;0.97;0.60;;;21.10;99.90;;;;;;5113638;28;20210;-70
2023/03/29 10:48:44;;;;;;;2.00;0.70;;;21.00;99.90;;;;;;5115343;28;20174;-69
2023/03/29 10:51:15;;;;;;;1.63;0.80;;;21.00;99.90;;;;;;5115513;28;20633;-70
2023/03/29 10:53:42;;;;;;;1.23;0.63;;;20.90;99.90;;;;;;5114752;28;20299;-69
2023/03/29 10:56:18;;;;;;;0.97;0.60;;;20.90;99.90;;;;;;5114925;28;20185;-68
2023/03/29 10:59:00;;;;;;;1.27;0.53;;;20.90;99.90;;;;;;5113494;28;20697;-70
2023/03/29 11:01:55;;;;;;;0.60;0.60;;;20.90;99.90;;;;;;5114976;28;20173;-70
2023/03/29 11:04:44;;;;;;;2.23;0.73;;;21.10;99.90;;;;;;5115369;28;20170;-70
2023/03/29 11:07:22;;;;;;;1.17;0.67;;;21.30;99.90;;;;;;5114808;28;20215;-70
2023/03/29 11:10:37;;;;;;;0.70;0.50;;;21.20;99.90;;;;;;5113516;28;20169;-71
2023/03/29 11:13:17;;;;;;;1.47;0.80;;;21.30;99.90;;;;;;5096843;28;20233;-70
2023/03/29 11:16:40;;;;;;;0.60;0.60;;;21.30;99.90;;;;;;5114523;28;20166;-69
2023/03/29 11:19:23;;;;;;;1.73;0.60;;;21.30;99.90;;;;;;5032283;28;20681;-68
2023/03/29 11:22:05;;;;;;;1.33;0.50;;;21.30;99.90;;;;;;5031908;28;20636;-68
2023/03/29 11:24:35;;;;;;;0.73;0.60;;;21.10;99.90;;;;;;5089307;28;20280;-70
2023/03/29 11:27:22;;;;;;;0.50;0.50;;;21.00;99.90;;;;;;5113022;28;20177;-70
2023/03/29 11:30:07;;;;;;;0.97;0.70;;;21.00;99.90;;;;;;5115102;28;20182;-71
2023/03/29 11:32:44;;;;;;;0.93;0.73;;;20.90;99.90;;;;;;5112992;28;20222;-73
2023/03/29 11:35:30;;;;;;;0.60;0.57;;;20.90;99.90;;;;;;5112921;28;20177;-71
2023/03/29 11:38:22;;;;;;;2.40;0.70;;;20.80;99.90;;;;;;5113199;28;20189;-71
2023/03/29 11:41:09;;;;;;;1.27;0.60;;;20.50;99.90;;;;;;5114009;28;20188;-71
2023/03/29 11:43:47;;;;;;;3.27;0.70;;;20.50;99.90;;;;;;5100054;28;20175;-71
2023/03/29 11:46:23;;;;;;;3.43;0.90;;;20.50;99.90;;;;;;5109259;28;20178;-71
2023/03/29 11:48:53;;;;;;;0.87;0.63;;;20.40;99.90;;;;;;5114087;28;20637;-68
2023/03/29 11:51:40;;;;;;;1.33;0.83;;;20.30;99.90;;;;;;5113166;28;20178;-69
2023/03/29 11:54:17;;;;;;;3.83;0.80;;;20.30;99.90;;;;;;5112622;28;20284;-69
2023/03/29 11:56:51;;;;;;;4.90;1.07;;;20.20;99.90;;;;;;5113713;28;20172;-69
2023/03/29 11:59:34;;;;;;;0.70;0.60;;;20.00;99.90;;;;;;5095865;28;20180;-68
2023/03/29 12:02:16;;;;;;;1.30;0.80;;;19.90;99.90;;;;;;5097555;28;20545;-70
2023/03/29 12:04:51;;;;;;;2.63;1.10;;;19.80;99.90;;;;;;5096198;28;20185;-69
2023/03/29 12:08:07;;;;;;;3.07;0.90;;;19.60;99.90;;;;;;5093446;28;20529;-69
2023/03/29 12:11:10;;;;;;;5.00;0.97;;;19.40;99.90;;;;;;5090359;28;20187;-70
2023/03/29 12:13:51;;;;;;;2.33;0.90;;;19.20;99.90;;;;;;5041847;28;20219;-70
2023/03/29 12:17:02;;;;;;;4.20;0.77;;;19.10;99.90;;;;;;5093128;28;20193;-69
2023/03/29 12:20:13;;;;;;;0.70;0.70;;;19.00;99.90;;;;;;5060540;28;20184;-69
2023/03/29 12:22:41;;;;;;;1.60;0.90;;;18.80;99.90;;;;;;5031315;28;20239;-69
2023/03/29 12:25:16;;;;;;;1.27;0.80;;;18.60;99.90;;;;;;5031162;28;20217;-68
2023/03/29 12:28:13;;;;;;;1.17;0.70;;;18.50;99.90;;;;;;5065156;28;20200;-70
2023/03/29 12:31:16;;;;;;;1.00;0.67;;;18.40;99.90;;;;;;5100813;28;20171;-70
2023/03/29 12:34:07;;;;;;;3.07;0.90;;;18.40;99.90;;;;;;5085049;28;20229;-70
2023/03/29 12:36:59;;;;;;;6.07;0.83;;;18.40;99.90;;;;;;5093427;28;20205;-69
2023/03/29 12:39:29;;;;;;;2.40;0.70;;;18.30;99.90;;;;;;5093185;28;20175;-71
2023/03/29 12:42:17;;;;;;;1.20;0.80;;;18.30;99.90;;;;;;5091573;28;20646;-69
2023/03/29 12:45:00;;;;;;;0.90;0.90;;;18.30;99.90;;;;;;5093103;28;20627;-69
2023/03/29 12:47:33;;;;;;;1.80;0.90;;;18.10;99.90;;;;;;5096276;28;20175;-70
2023/03/29 12:50:03;;;;;;;2.30;0.93;;;18.00;99.90;;;;;;5107800;28;20179;-69
2023/03/29 12:52:36;;;;;;;1.40;0.93;;;17.90;99.90;;;;;;5109496;28;20675;-69
2023/03/29 12:55:29;;;;;;;3.63;0.90;;;17.80;99.90;;;;;;5111440;28;20582;-69
2023/03/29 12:58:07;;;;;;;2.30;0.90;;;17.70;99.90;;;;;;5099665;28;20186;-69
2023/03/29 13:00:45;;;;;;;3.23;0.80;;;17.60;99.90;;;;;;5096633;28;20182;-69
2023/03/29 13:03:41;;;;;;;1.90;0.97;;;17.50;99.90;;;;;;5093433;28;20167;-69
2023/03/29 13:06:12;;;;;;;2.70;1.10;;;17.40;99.90;;;;;;5092834;28;20179;-70
2023/03/29 13:08:41;;;;;;;2.47;1.00;;;17.40;99.90;;;;;;5098406;28;20231;-69
2023/03/29 13:11:28;;;;;;;2.53;1.47;;;17.30;99.90;;;;;;5092518;28;20231;-69
2023/03/29 13:13:57;;;;;;;1.97;0.90;;;17.30;99.90;;;;;;5092602;28;20238;-70
2023/03/29 13:16:35;;;;;;;1.80;1.10;;;17.30;99.90;;;;;;5098071;28;20186;-71
2023/03/29 13:19:17;;;;;;;1.20;1.00;;;17.30;99.90;;;;;;5115902;27;20234;-69
2023/03/29 13:21:57;;;;;;;3.37;1.10;;;17.20;99.90;;;;;;5104278;28;20191;-71
2023/03/29 13:24:35;;;;;;;5.20;1.20;;;17.10;99.90;;;;;;5096595;28;20176;-69
2023/03/29 13:27:38;;;;;;;5.63;1.07;;;17.00;99.90;;;;;;5096981;28;20231;-69
2023/03/29 13:30:14;;;;;;;2.23;1.00;;;17.00;99.90;;;;;;5106948;28;20251;-69
2023/03/29 13:33:07;;;;;;;1.60;1.10;;;16.90;99.90;;;;;;5116813;28;20222;-72
2023/03/29 13:36:05;;;;;;;2.77;1.10;;;16.90;99.90;;;;;;5086532;28;20208;-68